Impacts TAF Board
For situational awareness. Not to be used for flight planning purposes.
IDs:

KDEN - Denver Intl, CO, US

Issued at 1455 UTC 16 Feb 2019
Updated at 1518 UTC 16 Feb 2019
Potential Impact None Slight Moderate High
Time<<17/04Z 17/05Z 17/06Z 17/07Z 17/08Z 17/09Z 17/10Z 17/11Z 17/12Z 17/13Z 17/14Z 17/15Z 17/16Z>>
Type PRVL PRVL PRVL PRVL PRVL PRVL PRVL PRVL PRVL PRVL PRVL PRVL PRVL
VIS >6 >6 >6 >6 >6 >6 >6 >6 >6 >6 >6 >6 >6
CIG 100 100 100 -- -- -- -- -- -- -- -- -- --
Cover BKN BKN BKN SCT SCT SCT SCT SCT SCT SCT SCT SCT SCT
FltCat VFR VFR VFR VFR VFR VFR VFR VFR VFR VFR VFR VFR VFR
WX -- -- -- -- -- -- -- -- -- -- -- -- --
WDir 280 280 280 220 220 220 220 220 220 220 220 60 60
WSpd 11 11 11 7 7 7 7 7 7 7 7 7 7
WGst -- -- -- -- -- -- -- -- -- -- -- -- --
Raw TAF
KDEN 161455Z 1615/1718 VRB06KT P6SM FEW080 BKN200
  FM161600 30008KT P6SM SCT070 BKN200
  FM161800 34020G32KT P6SM SCT050 OVC100
  TEMPO 1621/1624 -SN SCT030 BKN050
  FM170200 28011KT P6SM FEW050 BKN100
  FM170700 22007KT P6SM FEW070 SCT120
  FM171500 06007KT P6SM SCT220


METAR Board
Radar Display
Forecast Discussion
For situational awareness. Not to be used for flight planning purposes.